createdAt,value
2018-09-24T00:00:40.287Z,99325.73
2018-09-24T00:03:08.002Z,99331.37
2018-09-24T00:05:35.706Z,99338.86
2018-09-24T00:08:03.574Z,99342.08
2018-09-24T00:10:31.654Z,99349.59
2018-09-24T00:12:58.793Z,99365.67
2018-09-24T00:15:27.273Z,99368.36
2018-09-24T00:17:55.035Z,99375.05
2018-09-24T00:20:22.405Z,99356.26
2018-09-24T00:22:50.256Z,99384.37
2018-09-24T00:25:18.054Z,99383.09
2018-09-24T00:27:45.961Z,99394.33
2018-09-24T00:30:13.770Z,99408.55
2018-09-24T00:32:41.617Z,99410.91
2018-09-24T00:35:09.578Z,99421.36
2018-09-24T00:37:37.437Z,99428.59
2018-09-24T00:40:04.897Z,99428.59
2018-09-24T00:42:32.686Z,99429.64
2018-09-24T00:45:00.309Z,99435.81
2018-09-24T00:47:28.006Z,99436.08
2018-09-24T00:49:55.790Z,99439.83
2018-09-24T00:52:23.879Z,99456.44
2018-09-24T00:54:51.801Z,99461.27
2018-09-24T00:57:19.082Z,99459.41
2018-09-24T00:59:46.402Z,99467.44
2018-09-24T01:02:14.264Z,99460.98
2018-09-24T01:04:42.002Z,99468.23
2018-09-24T01:07:09.219Z,99469.02
2018-09-24T01:09:37.057Z,99476.27
2018-09-24T01:12:05.849Z,99476.82
2018-09-24T01:16:45.730Z,99476.27
2018-09-24T01:19:13.573Z,99489.11
2018-09-24T01:21:41.251Z,99488.06
2018-09-24T01:24:08.946Z,99493.13
2018-09-24T01:26:36.938Z,99495.02
2018-09-24T01:29:04.809Z,99500.38
2018-09-24T01:31:32.590Z,99500.38
2018-09-24T01:34:00.570Z,99509.50
2018-09-24T01:36:28.376Z,99501.98
2018-09-24T01:38:56.183Z,99505.70
2018-09-24T01:41:23.978Z,99505.70
2018-09-24T01:43:51.866Z,99506.26
2018-09-24T01:46:19.672Z,99512.14
2018-09-24T01:48:47.534Z,99513.73
2018-09-24T01:51:15.219Z,99516.15
2018-09-24T01:53:42.957Z,99464.58
2018-09-24T01:56:10.797Z,99521.25
2018-09-24T01:58:38.698Z,99523.63
2018-09-24T02:01:12.671Z,99519.88
2018-09-24T02:03:41.006Z,99523.11
2018-09-24T02:06:08.710Z,99506.47
2018-09-24T02:08:43.053Z,99517.75
2018-09-24T02:12:57.536Z,99522.59
2018-09-24T02:15:27.977Z,99526.05
2018-09-24T02:17:55.299Z,99518.78
2018-09-24T02:20:23.222Z,99533.52
2018-09-24T02:22:51.017Z,99535.16
2018-09-24T02:25:18.316Z,99534.61
2018-09-24T02:27:46.251Z,99541.04
2018-09-24T02:30:16.431Z,99506.08
2018-09-24T02:32:44.211Z,99549.59
2018-09-24T02:35:12.209Z,99561.08
2018-09-24T02:37:40.180Z,99564.32
2018-09-24T02:40:20.441Z,99564.06
2018-09-24T02:42:48.826Z,99566.48
2018-09-24T02:45:16.701Z,99566.73
2018-09-24T02:47:44.585Z,99572.63
2018-09-24T02:50:12.461Z,99568.64
2018-09-24T02:52:40.270Z,99567.27
2018-09-24T02:55:13.218Z,99572.88
2018-09-24T02:57:41.302Z,99578.23
2018-09-24T03:00:09.361Z,99577.70
2018-09-24T03:02:36.962Z,99584.40
2018-09-24T03:05:04.757Z,99584.14
2018-09-24T03:07:32.584Z,99594.28
2018-09-24T03:10:00.307Z,99604.48
2018-09-24T03:12:27.581Z,99607.94
2018-09-24T03:14:55.542Z,99605.53
2018-09-24T03:20:03.196Z,99614.88
2018-09-24T03:22:30.997Z,99619.48
2018-09-24T03:24:58.845Z,99612.97
2018-09-24T03:27:26.691Z,99625.09
2018-09-24T03:29:54.587Z,99629.92
2018-09-24T03:32:22.409Z,99632.55
2018-09-24T03:34:49.668Z,99636.58
2018-09-24T03:37:17.505Z,99643.25
2018-09-24T03:39:45.302Z,99643.00
2018-09-24T03:42:13.014Z,99649.19
2018-09-24T03:44:40.778Z,99643.27
2018-09-24T03:47:09.411Z,99654.73
2018-09-24T03:49:37.188Z,99661.17
2018-09-24T03:52:04.961Z,99660.10
2018-09-24T03:54:32.760Z,99654.42
2018-09-24T03:57:00.586Z,99658.75
2018-09-24T03:59:28.489Z,99663.55
2018-09-24T04:01:55.882Z,99666.28
2018-09-24T04:04:29.590Z,99671.95
2018-09-24T04:07:03.499Z,99674.81
2018-09-24T04:09:37.072Z,99679.92
2018-09-24T04:12:11.273Z,99680.44
2018-09-24T04:14:44.850Z,99689.28
2018-09-24T04:17:18.481Z,99693.82
2018-09-24T04:19:52.160Z,99705.12
2018-09-24T04:22:25.726Z,99706.47
2018-09-24T04:24:59.401Z,99718.27
2018-09-24T04:27:33.366Z,99720.19
2018-09-24T04:30:06.867Z,99718.82
2018-09-24T04:32:40.593Z,99726.60
2018-09-24T04:35:14.301Z,99721.70
2018-09-24T04:37:48.313Z,99734.91
2018-09-24T04:40:21.928Z,99742.11
2018-09-24T04:42:55.623Z,99748.28
2018-09-24T04:45:29.461Z,99751.75
2018-09-24T04:48:03.206Z,99757.09
2018-09-24T04:50:36.770Z,99757.36
2018-09-24T04:53:10.597Z,99750.36
2018-09-24T04:55:44.298Z,99758.67
2018-09-24T04:58:17.858Z,99761.88
2018-09-24T05:00:51.478Z,99764.86
2018-09-24T05:03:25.192Z,99772.58
2018-09-24T05:05:59.219Z,99764.52
2018-09-24T05:08:33.267Z,99773.63
2018-09-24T05:11:06.874Z,99781.69
2018-09-24T05:13:40.581Z,99784.38
2018-09-24T05:16:14.679Z,99796.66
2018-09-24T05:18:48.401Z,99792.58
2018-09-24T05:21:22.174Z,99806.30
2018-09-24T05:23:55.737Z,99810.03
2018-09-24T05:26:29.347Z,99815.41
2018-09-24T05:29:03.054Z,99823.69
2018-09-24T05:31:36.683Z,99829.30
2018-09-24T05:34:39.659Z,99833.58
2018-09-24T05:40:05.297Z,99846.13
2018-09-24T05:42:38.641Z,99843.91
2018-09-24T05:45:12.625Z,99845.45
2018-09-24T05:47:46.417Z,99861.42
2018-09-24T05:50:20.191Z,99858.04
2018-09-24T05:52:53.622Z,99865.30
2018-09-24T05:55:27.613Z,99866.15
2018-09-24T05:58:01.316Z,99868.72
2018-09-24T06:00:34.778Z,99876.50
2018-09-24T06:03:08.418Z,99878.03
2018-09-24T06:05:42.302Z,99886.05
2018-09-24T06:08:15.893Z,99892.66
2018-09-24T06:10:49.430Z,99907.39
2018-09-24T06:13:23.243Z,99909.52
2018-09-24T06:15:56.702Z,99911.66
2018-09-24T06:18:30.637Z,99910.55
2018-09-24T06:21:04.622Z,99914.30
2018-09-24T06:23:38.317Z,99916.16
2018-09-24T06:26:11.913Z,99928.47
2018-09-24T06:28:45.621Z,99932.47
2018-09-24T06:31:19.069Z,99937.03
2018-09-24T06:33:52.618Z,99939.16
2018-09-24T06:36:26.473Z,99939.34
2018-09-24T06:38:59.871Z,99948.70
2018-09-24T06:41:33.542Z,99948.22
2018-09-24T06:44:07.017Z,99945.55
2018-09-24T06:46:40.179Z,99958.70
2018-09-24T06:49:13.882Z,99956.37
2018-09-24T06:51:47.605Z,99957.03
2018-09-24T06:54:21.412Z,99964.39
2018-09-24T06:56:54.789Z,99965.39
2018-09-24T06:59:28.486Z,99973.00
2018-09-24T07:02:02.420Z,99984.42
2018-09-24T07:04:35.890Z,99987.64
2018-09-24T07:07:09.513Z,99997.62
2018-09-24T07:09:43.141Z,100002.12
2018-09-24T07:12:16.718Z,100006.95
2018-09-24T07:14:50.573Z,100011.23
2018-09-24T07:17:24.336Z,100017.38
2018-09-24T07:19:57.905Z,100019.56
2018-09-24T07:22:31.553Z,100020.33
2018-09-24T07:26:56.625Z,100025.44
2018-09-24T07:29:30.550Z,100033.22
2018-09-24T07:32:04.436Z,100029.23
2018-09-24T07:34:38.033Z,100037.78
2018-09-24T07:37:11.742Z,100037.02
2018-09-24T07:39:45.634Z,100034.11
2018-09-24T07:42:19.445Z,100042.50
2018-09-24T07:44:53.324Z,100049.19
2018-09-24T07:47:26.878Z,100052.59
2018-09-24T07:50:00.578Z,100059.66
2018-09-24T07:52:34.552Z,100058.31
2018-09-24T07:55:08.222Z,100047.48
2018-09-24T07:57:41.893Z,100064.22
2018-09-24T08:00:15.565Z,100067.47
2018-09-24T08:02:49.402Z,100073.06
2018-09-24T08:05:23.169Z,100082.29
2018-09-24T08:07:56.632Z,100079.06
2018-09-24T08:10:30.408Z,100084.17
2018-09-24T08:13:04.201Z,100083.11
2018-09-24T08:15:37.742Z,100091.11
2018-09-24T08:18:12.589Z,100089.02
2018-09-24T08:20:46.630Z,100083.66
2018-09-24T08:23:20.734Z,100086.58
2018-09-24T08:25:54.522Z,100105.80
2018-09-24T08:28:28.374Z,100106.89
2018-09-24T08:31:01.774Z,100108.71
2018-09-24T08:33:35.686Z,100100.83
2018-09-24T08:36:09.631Z,100094.48
2018-09-24T08:38:43.314Z,100112.69
2018-09-24T08:41:16.839Z,100116.23
2018-09-24T08:43:50.439Z,100119.76
2018-09-24T08:46:24.051Z,100116.23
2018-09-24T08:48:57.401Z,100115.23
2018-09-24T08:51:31.175Z,100115.74
2018-09-24T08:54:04.590Z,100123.25
2018-09-24T08:56:38.620Z,100114.09
2018-09-24T08:59:12.549Z,100121.44
2018-09-24T09:01:46.406Z,100129.47
2018-09-24T09:04:20.417Z,100126.69
2018-09-24T09:06:53.934Z,100137.63
2018-09-24T09:09:27.477Z,100140.38
2018-09-24T09:12:01.418Z,100134.17
2018-09-24T09:14:35.185Z,100134.17
2018-09-24T09:17:08.805Z,100134.81
2018-09-24T09:19:42.506Z,100142.58
2018-09-24T09:22:16.333Z,100144.67
2018-09-24T09:24:49.685Z,100132.83
2018-09-24T09:27:23.506Z,100139.63
2018-09-24T09:29:56.879Z,100146.31
2018-09-24T09:32:30.579Z,100140.11
2018-09-24T09:35:04.369Z,100142.98
2018-09-24T09:37:37.820Z,100140.24
2018-09-24T09:40:11.559Z,100142.16
2018-09-24T09:42:44.958Z,100134.65
2018-09-24T09:45:18.671Z,100143.16
2018-09-24T09:47:52.414Z,100145.56
2018-09-24T09:50:26.201Z,100141.55
2018-09-24T09:52:59.670Z,100147.38
2018-09-24T09:55:33.474Z,100147.06
2018-09-24T09:58:07.350Z,100144.94
2018-09-24T10:00:40.698Z,100144.98
2018-09-24T10:03:14.315Z,100139.14
2018-09-24T10:05:47.825Z,100137.73
2018-09-24T10:08:21.341Z,100138.56
2018-09-24T10:10:54.733Z,100135.98
2018-09-24T10:13:28.332Z,100134.38
2018-09-24T10:16:02.202Z,100145.28
2018-09-24T10:18:35.706Z,100137.94
2018-09-24T10:21:09.342Z,100127.99
2018-09-24T10:23:42.857Z,100133.92
2018-09-24T10:26:16.542Z,100133.72
2018-09-24T10:28:50.054Z,100141.23
2018-09-24T10:31:23.882Z,100140.03
2018-09-24T10:33:57.602Z,100129.70
2018-09-24T10:36:31.352Z,100127.55
2018-09-24T10:39:05.362Z,100129.70
2018-09-24T10:41:38.981Z,100136.13
2018-09-24T10:44:12.457Z,100135.34
2018-09-24T10:46:46.314Z,100129.33
2018-09-24T10:49:20.021Z,100137.36
2018-09-24T10:51:53.389Z,100133.62
2018-09-24T10:54:26.803Z,100133.86
2018-09-24T10:58:07.634Z,100145.11
2018-09-24T11:00:41.338Z,100149.32
2018-09-24T11:03:15.346Z,100147.84
2018-09-24T11:05:48.815Z,100142.73
2018-09-24T11:08:22.494Z,100143.86
2018-09-24T11:10:55.974Z,100135.09
2018-09-24T11:13:28.987Z,100133.16
2018-09-24T11:16:02.063Z,100134.36
2018-09-24T11:18:35.631Z,100133.09
2018-09-24T11:21:09.406Z,100138.71
2018-09-24T11:23:43.304Z,100136.23
2018-09-24T11:28:50.314Z,100133.50
2018-09-24T11:31:23.693Z,100137.94
2018-09-24T11:33:57.261Z,100134.99
2018-09-24T11:36:31.022Z,100126.38
2018-09-24T11:39:04.305Z,100124.19
2018-09-24T11:41:37.802Z,100109.64
2018-09-24T11:44:11.462Z,100122.50
2018-09-24T11:46:45.074Z,100116.98
2018-09-24T11:49:18.742Z,100114.83
2018-09-24T11:51:52.542Z,100106.94
2018-09-24T11:54:26.267Z,100111.13
2018-09-24T11:56:59.759Z,100111.13
2018-09-24T11:59:34.638Z,100114.07
2018-09-24T12:02:08.315Z,100112.16
2018-09-24T12:04:41.870Z,100109.37
2018-09-24T12:07:15.553Z,100114.83
2018-09-24T12:09:49.361Z,100112.91
2018-09-24T12:12:22.898Z,100116.05
2018-09-24T12:14:56.591Z,100110.83
2018-09-24T12:17:30.366Z,100100.20
2018-09-24T12:20:04.657Z,100096.52
2018-09-24T12:22:38.515Z,100095.09
2018-09-24T12:25:12.206Z,100104.77
2018-09-24T12:27:45.646Z,100110.94
2018-09-24T12:30:19.333Z,100104.30
2018-09-24T12:32:52.854Z,100107.45
2018-09-24T12:35:26.646Z,100103.87
2018-09-24T12:38:00.422Z,100101.55
2018-09-24T12:40:34.022Z,100096.88
2018-09-24T12:43:07.827Z,100080.05
2018-09-24T12:45:41.406Z,100083.20
2018-09-24T12:48:15.077Z,100079.05
2018-09-24T12:50:49.027Z,100093.92
2018-09-24T12:53:22.345Z,100094.27
2018-09-24T12:55:55.747Z,100097.57
2018-09-24T12:58:29.554Z,100095.77
2018-09-24T13:01:03.315Z,100088.17
2018-09-24T13:03:36.742Z,100080.43
2018-09-24T13:06:10.599Z,100084.20
2018-09-24T13:08:44.497Z,100086.05
2018-09-24T13:11:18.478Z,100091.13
2018-09-24T13:13:52.025Z,100087.87
2018-09-24T13:16:25.686Z,100081.73
2018-09-24T13:21:30.685Z,100087.08
2018-09-24T13:24:04.381Z,100091.87
2018-09-24T13:26:37.769Z,100091.13
2018-09-24T13:29:11.631Z,100083.69
2018-09-24T13:31:45.410Z,100082.11
2018-09-24T13:34:19.202Z,100050.45
2018-09-24T13:37:18.614Z,100080.23
2018-09-24T13:39:52.531Z,100079.72
2018-09-24T13:42:26.412Z,100077.11
2018-09-24T13:45:00.208Z,100081.23
2018-09-24T13:47:33.866Z,100085.17
2018-09-24T13:50:07.635Z,100092.84
2018-09-24T13:52:41.462Z,100087.58
2018-09-24T13:55:15.070Z,100080.80
2018-09-24T13:57:48.797Z,100083.63
2018-09-24T14:00:22.458Z,100083.78
2018-09-24T14:02:56.280Z,100082.45
2018-09-24T14:05:29.986Z,100075.45
2018-09-24T14:08:03.214Z,100063.63
2018-09-24T14:10:36.882Z,100069.75
2018-09-24T14:13:10.658Z,100070.22
2018-09-24T14:15:44.654Z,100063.42
2018-09-24T14:18:19.070Z,100066.17
2018-09-24T14:20:53.312Z,100056.20
2018-09-24T14:23:26.781Z,100066.22
2018-09-24T14:26:00.583Z,100065.54
2018-09-24T14:28:34.314Z,100062.59
2018-09-24T14:31:08.126Z,100063.11
2018-09-24T14:33:41.922Z,100058.86
2018-09-24T14:36:16.610Z,100063.81
2018-09-24T14:38:50.226Z,100056.94
2018-09-24T14:41:23.721Z,100069.20
2018-09-24T14:43:57.611Z,100060.67
2018-09-24T14:46:31.609Z,100064.09
2018-09-24T14:49:05.471Z,100061.14
2018-09-24T14:51:39.350Z,100058.27
2018-09-24T14:54:13.337Z,100066.29
2018-09-24T14:56:47.070Z,100065.94
2018-09-24T14:59:20.353Z,100060.09
2018-09-24T15:01:54.226Z,100057.92
2018-09-24T15:04:27.818Z,100061.14
2018-09-24T15:07:01.577Z,100049.83
2018-09-24T15:09:35.203Z,100052.57
2018-09-24T15:12:08.630Z,100056.47
2018-09-24T15:14:42.212Z,100057.03
2018-09-24T15:17:15.846Z,100054.97
2018-09-24T15:19:49.212Z,100061.18
2018-09-24T15:22:22.709Z,100061.62
2018-09-24T15:24:56.541Z,100053.49
2018-09-24T15:27:30.217Z,100060.48
2018-09-24T15:30:04.043Z,100061.51
2018-09-24T15:32:37.673Z,100060.17
2018-09-24T15:35:11.701Z,100054.00
2018-09-24T15:37:45.586Z,100051.09
2018-09-24T15:40:19.018Z,100051.60
2018-09-24T15:42:52.230Z,100048.45
2018-09-24T15:45:25.742Z,100044.64
2018-09-24T15:47:59.418Z,100049.20
2018-09-24T15:50:33.212Z,100045.74
2018-09-24T15:53:07.232Z,100043.59
2018-09-24T15:55:40.702Z,100044.64
2018-09-24T15:58:14.730Z,100047.01
2018-09-24T16:00:48.614Z,100050.27
2018-09-24T16:03:22.421Z,100045.91
2018-09-24T16:05:56.038Z,100053.41
2018-09-24T16:08:29.416Z,100058.75
2018-09-24T16:11:03.490Z,100046.85
2018-09-24T16:13:37.014Z,100056.31
2018-09-24T16:16:10.409Z,100056.51
2018-09-24T16:18:43.972Z,100059.70
2018-09-24T16:21:17.404Z,100051.64
2018-09-24T16:23:50.950Z,100061.31
2018-09-24T16:26:24.598Z,100072.00
2018-09-24T16:28:58.582Z,100071.67
2018-09-24T16:31:32.522Z,100073.99
2018-09-24T16:34:06.417Z,100069.23
2018-09-24T16:36:40.006Z,100078.00
2018-09-24T16:39:13.672Z,100079.41
2018-09-24T16:41:47.705Z,100077.25
2018-09-24T16:44:21.543Z,100083.06
2018-09-24T16:46:54.930Z,100081.73
2018-09-24T16:49:28.337Z,100089.16
2018-09-24T16:52:02.353Z,100091.83
2018-09-24T16:54:36.021Z,100094.50
2018-09-24T16:57:09.420Z,100090.72
2018-09-24T16:59:43.354Z,100089.14
2018-09-24T17:02:16.955Z,100099.13
2018-09-24T17:04:49.962Z,100101.25
2018-09-24T17:07:23.630Z,100103.12
2018-09-24T17:09:57.464Z,100101.91
2018-09-24T17:12:30.979Z,100104.38
2018-09-24T17:15:04.154Z,100107.69
2018-09-24T17:17:37.718Z,100114.32
2018-09-24T17:20:11.634Z,100113.14
2018-09-24T17:22:45.285Z,100114.25
2018-09-24T17:25:18.893Z,100120.41
2018-09-24T17:27:52.575Z,100122.34
2018-09-24T17:30:26.330Z,100123.09
2018-09-24T17:32:59.622Z,100125.29
2018-09-24T17:35:33.381Z,100137.55
2018-09-24T17:38:06.803Z,100138.23
2018-09-24T17:40:40.306Z,100137.74
2018-09-24T17:43:13.822Z,100141.52
2018-09-24T17:45:47.413Z,100138.25
2018-09-24T17:48:21.187Z,100137.93
2018-09-24T17:50:54.697Z,100145.52
2018-09-24T17:53:28.518Z,100144.19
2018-09-24T17:56:02.169Z,100150.28
2018-09-24T18:00:12.550Z,100152.44
2018-09-24T18:02:46.399Z,100158.58
2018-09-24T18:05:20.022Z,100159.67
2018-09-24T18:07:53.626Z,100166.36
2018-09-24T18:10:27.294Z,100168.23
2018-09-24T18:13:00.806Z,100167.37
2018-09-24T18:15:34.581Z,100165.72
2018-09-24T18:18:07.910Z,100174.05
2018-09-24T18:20:41.469Z,100175.86
2018-09-24T18:23:14.780Z,100170.81
2018-09-24T18:25:48.594Z,100172.95
2018-09-24T18:28:22.302Z,100178.02
2018-09-24T18:30:56.348Z,100178.20
2018-09-24T18:33:29.789Z,100189.24
2018-09-24T18:36:03.587Z,100191.69
2018-09-24T18:38:37.170Z,100195.29
2018-09-24T18:41:10.726Z,100207.48
2018-09-24T18:43:44.485Z,100206.62
2018-09-24T18:46:18.041Z,100209.98
2018-09-24T18:48:51.412Z,100210.34
2018-09-24T18:51:25.279Z,100212.43
2018-09-24T18:53:58.652Z,100219.11
2018-09-24T18:56:32.485Z,100214.59
2018-09-24T18:59:06.156Z,100217.49
2018-09-24T19:01:39.745Z,100231.68
2018-09-24T19:07:04.062Z,100224.81
2018-09-24T19:09:37.453Z,100226.66
2018-09-24T19:12:11.058Z,100228.69
2018-09-24T19:14:44.749Z,100238.62
2018-09-24T19:17:18.517Z,100228.91
2018-09-24T19:19:52.294Z,100244.03
2018-09-24T19:22:25.770Z,100232.37
2018-09-24T19:24:59.574Z,100232.94
2018-09-24T19:27:32.993Z,100236.48
2018-09-24T19:30:06.301Z,100245.88
2018-09-24T19:32:39.667Z,100239.98
2018-09-24T19:35:13.447Z,100243.45
2018-09-24T19:37:47.295Z,100242.88
2018-09-24T19:40:20.949Z,100237.81
2018-09-24T19:45:41.608Z,100246.84
2018-09-24T19:48:15.213Z,100242.23
2018-09-24T19:50:48.618Z,100244.44
2018-09-24T19:53:22.054Z,100249.97
2018-09-24T19:55:56.303Z,100255.09
2018-09-24T19:58:29.991Z,100258.55
2018-09-24T20:01:03.306Z,100241.83
2018-09-24T20:03:36.743Z,100260.12
2018-09-24T20:06:10.517Z,100260.12
2018-09-24T20:08:44.516Z,100256.66
2018-09-24T20:11:17.951Z,100258.22
2018-09-24T20:13:51.566Z,100262.09
2018-09-24T20:16:35.469Z,100259.14
2018-09-24T20:19:09.318Z,100262.09
2018-09-24T20:21:42.762Z,100264.54
2018-09-24T20:24:17.586Z,100259.42
2018-09-24T20:26:51.350Z,100265.00
2018-09-24T20:29:24.970Z,100273.84
2018-09-24T20:31:58.039Z,100269.65
2018-09-24T20:34:31.573Z,100271.17
2018-09-24T20:37:05.534Z,100264.44
2018-09-24T20:39:39.184Z,100270.58
2018-09-24T20:42:12.872Z,100276.56
2018-09-24T20:44:46.737Z,100270.70
2018-09-24T20:47:20.599Z,100287.31
2018-09-24T20:49:54.298Z,100279.05
2018-09-24T20:52:28.021Z,100281.41
2018-09-24T20:55:01.358Z,100283.02
2018-09-24T20:57:35.181Z,100287.08
2018-09-24T21:00:09.300Z,100293.15
2018-09-24T21:02:42.881Z,100292.38
2018-09-24T21:05:16.577Z,100292.27
2018-09-24T21:07:50.498Z,100295.00
2018-09-24T21:10:23.916Z,100304.41
2018-09-24T21:12:57.165Z,100288.96
2018-09-24T21:15:30.809Z,100301.27
2018-09-24T21:18:04.510Z,100301.91
2018-09-24T21:20:38.306Z,100308.23
2018-09-24T21:23:11.922Z,100301.73
2018-09-24T21:25:45.627Z,100304.17
2018-09-24T21:28:19.518Z,100301.17
2018-09-24T21:30:52.930Z,100298.19
2018-09-24T21:33:25.974Z,100313.06
2018-09-24T21:35:59.241Z,100303.53
2018-09-24T21:38:32.870Z,100310.11
2018-09-24T21:41:06.577Z,100303.06
2018-09-24T21:43:40.446Z,100308.70
2018-09-24T21:46:14.215Z,100318.36
2018-09-24T21:48:48.042Z,100316.25
2018-09-24T21:51:21.309Z,100318.05
2018-09-24T21:53:54.724Z,100320.44
2018-09-24T21:56:28.386Z,100318.64
2018-09-24T21:59:02.023Z,100324.27
2018-09-24T22:01:35.405Z,100307.91
2018-09-24T22:04:09.186Z,100328.70
2018-09-24T22:06:42.766Z,100325.79
2018-09-24T22:09:16.490Z,100328.19
2018-09-24T22:11:50.011Z,100329.23
2018-09-24T22:14:23.378Z,100327.31
2018-09-24T22:16:57.036Z,100336.20
2018-09-24T22:19:30.302Z,100334.81
2018-09-24T22:22:03.674Z,100342.89
2018-09-24T22:24:37.391Z,100334.45
2018-09-24T22:27:10.974Z,100340.39
2018-09-24T22:29:44.606Z,100335.78
2018-09-24T22:32:18.326Z,100339.52
2018-09-24T22:34:51.890Z,100346.70
2018-09-24T22:37:25.670Z,100323.28
2018-09-24T22:39:59.505Z,100350.67
2018-09-24T22:42:33.406Z,100359.60
2018-09-24T22:45:07.010Z,100362.33
2018-09-24T22:47:40.279Z,100360.11
2018-09-24T22:50:13.632Z,100355.00
2018-09-24T22:52:47.301Z,100365.23
2018-09-24T22:55:20.886Z,100365.23
2018-09-24T22:57:54.847Z,100370.24
2018-09-24T23:00:28.395Z,100374.30
2018-09-24T23:03:02.390Z,100371.27
2018-09-24T23:05:36.038Z,100363.66
2018-09-24T23:08:09.190Z,100367.34
2018-09-24T23:10:42.905Z,100363.02
2018-09-24T23:13:16.570Z,100366.56
2018-09-24T23:15:50.584Z,100364.44
2018-09-24T23:18:24.213Z,100378.31
2018-09-24T23:20:57.898Z,100367.84
2018-09-24T23:23:31.534Z,100377.94
2018-09-24T23:26:05.784Z,100380.98
2018-09-24T23:28:39.195Z,100379.64
2018-09-24T23:31:12.768Z,100381.27
2018-09-24T23:33:46.480Z,100383.60
2018-09-24T23:36:20.262Z,100392.36
2018-09-24T23:38:53.938Z,100391.08
2018-09-24T23:41:27.635Z,100394.80
2018-09-24T23:44:01.326Z,100393.47
2018-09-24T23:46:34.782Z,100391.84
2018-09-24T23:49:08.421Z,100397.36
2018-09-24T23:51:42.045Z,100365.08
2018-09-24T23:54:15.918Z,100389.69
2018-09-24T23:56:49.591Z,100397.47
2018-09-24T23:59:23.326Z,100395.80
